Terminal Aerodrome Forecast
Issued by NWS

Home | Current Version | Previous Version | Text Only | Print | Product List | Glossary On
Versions: 1 2 3 4 5 6 7 8 9 10 11 12 13 14 15 16 17 18 19 20 21 22 23 24 25 26 27 28 29 30 31 32 33 34 35 36 37 38 39 40
000
FTUS41 KBOX 251517 AAA
TAFACK
TAF AMD
KACK 251517Z 2515/2612 04012KT P6SM BKN040
     FM251800 04012KT P6SM BKN020
     FM252100 02011G18KT P6SM VCSH OVC025
     FM252300 03009KT 5SM -RA BR BKN030
     FM260100 03008KT P6SM BKN035
     FM260400 04009KT P6SM SCT250=

USA.gov is the U.S. government's official web portal to all federal, state and local government web resources and services.